createdAt,value
2024-02-20T00:00:45.208Z,9.42
2024-02-20T00:01:45.246Z,9.42
2024-02-20T00:02:45.193Z,9.40
2024-02-20T00:03:45.202Z,9.40
2024-02-20T00:04:45.268Z,9.42
2024-02-20T00:05:45.185Z,9.42
2024-02-20T00:06:45.196Z,9.42
2024-02-20T00:07:45.151Z,9.42
2024-02-20T00:08:45.170Z,9.46
2024-02-20T00:09:45.098Z,9.43
2024-02-20T00:10:45.165Z,9.43
2024-02-20T00:11:45.083Z,9.46
2024-02-20T00:12:45.068Z,9.43
2024-02-20T00:13:45.062Z,9.43
2024-02-20T00:14:45.060Z,9.42
2024-02-20T00:15:45.035Z,9.42
2024-02-20T00:16:45.032Z,9.43
2024-02-20T00:17:45.053Z,9.42
2024-02-20T00:18:45.047Z,9.42
2024-02-20T00:19:45.024Z,9.42
2024-02-20T00:20:45.004Z,9.42
2024-02-20T00:21:44.982Z,9.43
2024-02-20T00:22:44.980Z,9.46
2024-02-20T00:23:44.960Z,9.43
2024-02-20T00:24:44.936Z,9.43
2024-02-20T00:25:45.050Z,9.46
2024-02-20T00:26:44.915Z,9.42
2024-02-20T00:27:44.891Z,9.43
2024-02-20T00:28:44.900Z,9.43
2024-02-20T00:29:44.895Z,9.46
2024-02-20T00:30:44.869Z,9.43
2024-02-20T00:31:44.863Z,9.43
2024-02-20T00:32:44.887Z,9.43
2024-02-20T00:33:44.859Z,9.42
2024-02-20T00:34:44.894Z,9.42
2024-02-20T00:35:44.969Z,9.42
2024-02-20T00:36:44.798Z,9.42
2024-02-20T00:37:44.790Z,9.42
2024-02-20T00:38:44.777Z,9.42
2024-02-20T00:39:44.781Z,9.42
2024-02-20T00:40:44.826Z,9.43
2024-02-20T00:41:44.770Z,9.43
2024-02-20T00:42:44.741Z,9.46
2024-02-20T00:43:44.720Z,9.46
2024-02-20T00:44:44.723Z,9.46
2024-02-20T00:45:44.716Z,9.46
2024-02-20T00:46:44.691Z,9.46
2024-02-20T00:47:44.729Z,9.43
2024-02-20T00:48:44.734Z,9.42
2024-02-20T00:49:44.715Z,9.46
2024-02-20T00:50:44.650Z,9.46
2024-02-20T00:51:44.632Z,9.46
2024-02-20T00:52:44.637Z,9.43
2024-02-20T00:53:44.618Z,9.43
2024-02-20T00:54:44.598Z,9.43
2024-02-20T00:55:44.596Z,9.43
2024-02-20T00:56:44.589Z,9.43
2024-02-20T00:57:44.593Z,9.43
2024-02-20T00:58:44.569Z,9.46
2024-02-20T00:59:44.571Z,9.43
2024-02-20T01:00:44.584Z,9.43
2024-02-20T01:01:44.642Z,9.42
2024-02-20T01:02:44.538Z,9.40
2024-02-20T01:03:44.605Z,9.42
2024-02-20T01:04:44.685Z,9.42
2024-02-20T01:05:44.515Z,9.42
2024-02-20T01:06:44.501Z,9.40
2024-02-20T01:07:44.474Z,9.40
2024-02-20T01:08:44.448Z,9.42
2024-02-20T01:09:44.448Z,9.40
2024-02-20T01:10:44.514Z,9.40
2024-02-20T01:11:44.420Z,9.40
2024-02-20T01:12:44.411Z,9.40
2024-02-20T01:13:44.408Z,9.40
2024-02-20T01:14:44.395Z,9.39
2024-02-20T01:15:44.375Z,9.40
2024-02-20T01:16:44.393Z,9.40
2024-02-20T01:17:44.390Z,9.42
2024-02-20T01:18:44.374Z,9.40
2024-02-20T01:19:44.365Z,9.42
2024-02-20T01:20:44.330Z,9.42
2024-02-20T01:21:44.347Z,9.42
2024-02-20T01:22:44.342Z,9.40
2024-02-20T01:23:44.275Z,9.40
2024-02-20T01:24:44.288Z,9.40
2024-02-20T01:25:44.316Z,9.39
2024-02-20T01:26:44.280Z,9.39
2024-02-20T01:27:44.258Z,9.38
2024-02-20T01:28:44.234Z,9.38
2024-02-20T01:29:44.219Z,9.38
2024-02-20T01:30:44.207Z,9.36
2024-02-20T01:31:44.243Z,9.36
2024-02-20T01:32:44.202Z,9.35
2024-02-20T01:33:44.243Z,9.36
2024-02-20T01:34:44.361Z,9.35
2024-02-20T01:35:44.152Z,9.33
2024-02-20T01:36:44.156Z,9.35
2024-02-20T01:37:44.134Z,9.33
2024-02-20T01:38:44.128Z,9.32
2024-02-20T01:39:44.122Z,9.31
2024-02-20T01:40:44.116Z,9.31
2024-02-20T01:41:44.105Z,9.31
2024-02-20T01:42:44.081Z,9.29
2024-02-20T01:43:44.075Z,9.28
2024-02-20T01:44:44.091Z,9.28
2024-02-20T01:45:44.038Z,9.28
2024-02-20T01:46:44.130Z,9.26
2024-02-20T01:47:44.104Z,9.29
2024-02-20T01:48:44.185Z,9.29
2024-02-20T01:49:44.196Z,9.29
2024-02-20T01:50:44.062Z,9.29
2024-02-20T01:51:43.975Z,9.31
2024-02-20T01:52:43.980Z,9.29
2024-02-20T01:53:43.965Z,9.29
2024-02-20T01:54:43.949Z,9.28
2024-02-20T01:55:43.948Z,9.31
2024-02-20T01:56:43.926Z,9.28
2024-02-20T01:57:43.918Z,9.26
2024-02-20T01:58:43.899Z,9.28
2024-02-20T01:59:43.892Z,9.26
2024-02-20T02:00:43.904Z,9.26
2024-02-20T02:01:43.943Z,9.26
2024-02-20T02:02:43.881Z,9.24
2024-02-20T02:03:43.980Z,9.24
2024-02-20T02:04:44.016Z,9.24
2024-02-20T02:05:44.103Z,9.24
2024-02-20T02:06:43.867Z,9.23
2024-02-20T02:07:43.862Z,9.24
2024-02-20T02:08:43.824Z,9.23
2024-02-20T02:09:43.785Z,9.23
2024-02-20T02:10:43.913Z,9.24
2024-02-20T02:11:43.787Z,9.21
2024-02-20T02:12:43.746Z,9.21
2024-02-20T02:13:43.815Z,9.23
2024-02-20T02:14:43.748Z,9.23
2024-02-20T02:15:43.714Z,9.23
2024-02-20T02:16:43.774Z,9.24
2024-02-20T02:17:43.814Z,9.23
2024-02-20T02:18:43.829Z,9.21
2024-02-20T02:19:43.684Z,9.23
2024-02-20T02:20:43.663Z,9.21
2024-02-20T02:21:43.637Z,9.23
2024-02-20T02:22:43.717Z,9.20
2024-02-20T02:23:43.618Z,9.20
2024-02-20T02:24:43.629Z,9.17
2024-02-20T02:25:43.654Z,9.15
2024-02-20T02:26:43.593Z,9.15
2024-02-20T02:27:43.600Z,9.18
2024-02-20T02:28:43.591Z,9.18
2024-02-20T02:29:43.556Z,9.20
2024-02-20T02:30:43.542Z,9.17
2024-02-20T02:31:43.608Z,9.18
2024-02-20T02:32:43.547Z,9.18
2024-02-20T02:33:43.508Z,9.18
2024-02-20T02:34:43.565Z,9.18
2024-02-20T02:35:43.489Z,9.18
2024-02-20T02:36:43.517Z,9.17
2024-02-20T02:37:43.464Z,9.17
2024-02-20T02:38:43.459Z,9.15
2024-02-20T02:39:43.442Z,9.17
2024-02-20T02:40:43.460Z,9.15
2024-02-20T02:41:43.430Z,9.15
2024-02-20T02:42:43.440Z,9.17
2024-02-20T02:43:43.431Z,9.15
2024-02-20T02:44:43.403Z,9.14
2024-02-20T02:45:43.380Z,9.14
2024-02-20T02:46:43.412Z,9.14
2024-02-20T02:47:43.400Z,9.14
2024-02-20T02:48:43.361Z,9.15
2024-02-20T02:49:43.459Z,9.14
2024-02-20T02:50:43.329Z,9.14
2024-02-20T02:51:43.327Z,9.14
2024-02-20T02:52:43.460Z,9.13
2024-02-20T02:53:43.292Z,9.14
2024-02-20T02:54:43.286Z,9.13
2024-02-20T02:55:43.291Z,9.13
2024-02-20T02:56:43.260Z,9.11
2024-02-20T02:57:43.779Z,9.13
2024-02-20T02:58:43.285Z,9.11
2024-02-20T02:59:43.232Z,9.10
2024-02-20T03:00:43.226Z,9.11
2024-02-20T03:01:43.364Z,9.08
2024-02-20T03:02:43.231Z,9.08
2024-02-20T03:03:43.232Z,9.05
2024-02-20T03:04:43.225Z,9.05
2024-02-20T03:05:43.171Z,9.05
2024-02-20T03:06:43.181Z,9.05
2024-02-20T03:07:43.176Z,9.04
2024-02-20T03:08:43.119Z,9.05
2024-02-20T03:09:43.105Z,9.05
2024-02-20T03:10:43.185Z,9.05
2024-02-20T03:11:43.094Z,9.08
2024-02-20T03:12:43.101Z,9.05
2024-02-20T03:13:43.072Z,9.08
2024-02-20T03:14:43.084Z,9.08
2024-02-20T03:15:43.068Z,9.05
2024-02-20T03:16:43.107Z,9.04
2024-02-20T03:17:43.077Z,9.04
2024-02-20T03:18:43.059Z,9.02
2024-02-20T03:19:43.028Z,9.02
2024-02-20T03:20:42.993Z,9.01
2024-02-20T03:21:42.986Z,8.99
2024-02-20T03:22:43.015Z,8.98
2024-02-20T03:23:42.975Z,8.95
2024-02-20T03:24:42.950Z,8.96
2024-02-20T03:25:42.953Z,8.96
2024-02-20T03:26:42.926Z,8.98
2024-02-20T03:27:42.938Z,8.96
2024-02-20T03:28:42.957Z,8.99
2024-02-20T03:29:42.930Z,8.96
2024-02-20T03:30:42.878Z,8.96
2024-02-20T03:31:42.889Z,8.98
2024-02-20T03:32:43.041Z,8.96
2024-02-20T03:33:43.051Z,8.95
2024-02-20T03:34:42.896Z,8.95
2024-02-20T03:35:42.829Z,8.95
2024-02-20T03:36:42.798Z,8.95
2024-02-20T03:37:42.880Z,8.96
2024-02-20T03:38:42.800Z,8.95
2024-02-20T03:39:42.787Z,8.96
2024-02-20T03:40:42.810Z,8.96
2024-02-20T03:41:42.786Z,8.98
2024-02-20T03:42:42.736Z,8.98
2024-02-20T03:43:42.761Z,8.99
2024-02-20T03:44:42.724Z,8.98
2024-02-20T03:45:42.714Z,8.96
2024-02-20T03:46:42.777Z,8.98
2024-02-20T03:47:42.844Z,8.98
2024-02-20T03:48:42.837Z,8.99
2024-02-20T03:49:42.830Z,8.98
2024-02-20T03:50:42.700Z,8.98
2024-02-20T03:51:42.642Z,8.96
2024-02-20T03:52:42.664Z,8.95
2024-02-20T03:53:42.648Z,8.95
2024-02-20T03:54:42.612Z,8.96
2024-02-20T03:55:42.619Z,8.95
2024-02-20T03:56:42.594Z,8.96
2024-02-20T03:57:42.573Z,8.96
2024-02-20T03:58:42.625Z,8.96
2024-02-20T03:59:42.562Z,8.96
2024-02-20T04:00:42.554Z,8.96
2024-02-20T04:01:42.613Z,8.98
2024-02-20T04:02:42.518Z,8.96
2024-02-20T04:03:42.544Z,8.96
2024-02-20T04:04:42.584Z,8.96
2024-02-20T04:05:42.497Z,8.96
2024-02-20T04:06:42.657Z,8.96
2024-02-20T04:07:42.493Z,8.98
2024-02-20T04:08:42.456Z,8.98
2024-02-20T04:09:42.456Z,8.98
2024-02-20T04:10:42.635Z,8.99
2024-02-20T04:11:42.465Z,8.98
2024-02-20T04:12:42.417Z,8.99
2024-02-20T04:13:42.433Z,8.99
2024-02-20T04:14:42.378Z,8.99
2024-02-20T04:15:42.407Z,8.98
2024-02-20T04:16:42.446Z,8.99
2024-02-20T04:17:42.460Z,9.01
2024-02-20T04:18:42.432Z,9.01
2024-02-20T04:19:42.440Z,9.01
2024-02-20T04:20:42.363Z,8.99
2024-02-20T04:21:42.327Z,8.99
2024-02-20T04:22:42.331Z,9.01
2024-02-20T04:23:42.294Z,8.99
2024-02-20T04:24:42.278Z,8.99
2024-02-20T04:25:42.312Z,8.98
2024-02-20T04:26:42.271Z,8.99
2024-02-20T04:27:42.247Z,8.99
2024-02-20T04:28:42.268Z,8.99
2024-02-20T04:29:42.225Z,8.96
2024-02-20T04:30:42.216Z,8.98
2024-02-20T04:31:42.254Z,8.99
2024-02-20T04:32:42.218Z,8.98
2024-02-20T04:33:42.224Z,8.98
2024-02-20T04:34:42.343Z,8.98
2024-02-20T04:35:42.152Z,8.98
2024-02-20T04:36:42.148Z,8.98
2024-02-20T04:37:42.154Z,8.99
2024-02-20T04:38:42.199Z,8.96
2024-02-20T04:39:42.106Z,8.96
2024-02-20T04:40:42.221Z,8.98
2024-02-20T04:41:44.202Z,8.96
2024-02-20T04:42:42.070Z,8.95
2024-02-20T04:43:42.076Z,8.94
2024-02-20T04:44:42.065Z,8.92
2024-02-20T04:45:42.065Z,8.91
2024-02-20T04:46:42.055Z,8.89
2024-02-20T04:47:42.116Z,8.87
2024-02-20T04:48:42.037Z,8.86
2024-02-20T04:49:42.214Z,8.83
2024-02-20T04:50:41.999Z,8.81
2024-02-20T04:51:41.970Z,8.81
2024-02-20T04:52:42.033Z,8.81
2024-02-20T04:53:41.954Z,8.80
2024-02-20T04:54:41.937Z,8.79
2024-02-20T04:55:42.126Z,8.79
2024-02-20T04:56:41.931Z,8.77
2024-02-20T04:57:41.911Z,8.76
2024-02-20T04:58:41.950Z,8.76
2024-02-20T04:59:43.849Z,8.74
2024-02-20T05:00:41.926Z,8.73
2024-02-20T05:01:41.968Z,8.71
2024-02-20T05:02:41.878Z,8.70
2024-02-20T05:03:41.866Z,8.68
2024-02-20T05:04:41.891Z,8.66
2024-02-20T05:05:41.827Z,8.66
2024-02-20T05:06:41.844Z,8.66
2024-02-20T05:07:41.956Z,8.66
2024-02-20T05:08:41.793Z,8.66
2024-02-20T05:09:41.776Z,8.63
2024-02-20T05:10:41.866Z,8.63
2024-02-20T05:11:41.830Z,8.62
2024-02-20T05:12:41.774Z,8.61
2024-02-20T05:13:41.750Z,8.61
2024-02-20T05:14:41.719Z,8.58
2024-02-20T05:15:41.706Z,8.53
2024-02-20T05:16:44.787Z,8.52
2024-02-20T05:17:41.914Z,8.48
2024-02-20T05:18:41.697Z,8.47
2024-02-20T05:19:41.715Z,8.47
2024-02-20T05:20:41.660Z,8.43
2024-02-20T05:21:41.646Z,8.44
2024-02-20T05:22:41.692Z,8.43
2024-02-20T05:23:41.625Z,8.43
2024-02-20T05:24:41.835Z,8.43
2024-02-20T05:25:41.640Z,8.41
2024-02-20T05:26:41.609Z,8.43
2024-02-20T05:27:41.600Z,8.41
2024-02-20T05:28:41.657Z,8.40
2024-02-20T05:29:42.162Z,8.40
2024-02-20T05:30:41.582Z,8.40
2024-02-20T05:31:41.664Z,8.40
2024-02-20T05:32:41.534Z,8.40
2024-02-20T05:33:41.579Z,8.40
2024-02-20T05:34:41.682Z,8.38
2024-02-20T05:35:41.498Z,8.38
2024-02-20T05:36:41.477Z,8.37
2024-02-20T05:37:41.566Z,8.38
2024-02-20T05:38:41.466Z,8.38
2024-02-20T05:39:41.450Z,8.40
2024-02-20T05:40:41.565Z,8.38
2024-02-20T05:41:41.449Z,8.40
2024-02-20T05:42:41.411Z,8.40
2024-02-20T05:43:41.426Z,8.38
2024-02-20T05:44:41.402Z,8.37
2024-02-20T05:45:41.383Z,8.37
2024-02-20T05:46:41.539Z,8.37
2024-02-20T05:47:41.462Z,8.37
2024-02-20T05:48:41.451Z,8.36
2024-02-20T05:49:41.465Z,8.36
2024-02-20T05:50:41.412Z,8.34
2024-02-20T05:51:41.320Z,8.34
2024-02-20T05:52:41.383Z,8.34
2024-02-20T05:53:41.303Z,8.30
2024-02-20T05:54:41.308Z,8.29
2024-02-20T05:55:41.325Z,8.28
2024-02-20T05:56:41.274Z,8.28
2024-02-20T05:57:41.262Z,8.28
2024-02-20T05:58:41.293Z,8.28
2024-02-20T05:59:41.241Z,8.26
2024-02-20T06:00:41.284Z,8.26
2024-02-20T06:01:41.313Z,8.25
2024-02-20T06:02:41.204Z,8.23
2024-02-20T06:03:41.181Z,8.22
2024-02-20T06:04:41.318Z,8.19
2024-02-20T06:05:41.324Z,8.15
2024-02-20T06:06:41.203Z,8.10
2024-02-20T06:07:41.273Z,8.07
2024-02-20T06:08:41.134Z,8.08
2024-02-20T06:09:41.709Z,8.05
2024-02-20T06:10:41.189Z,8.01
2024-02-20T06:11:41.164Z,7.98
2024-02-20T06:12:41.156Z,7.95
2024-02-20T06:13:41.166Z,7.95
2024-02-20T06:14:41.069Z,7.95
2024-02-20T06:15:41.098Z,7.93
2024-02-20T06:16:41.169Z,7.92
2024-02-20T06:17:41.097Z,7.92
2024-02-20T06:18:41.247Z,7.90
2024-02-20T06:19:41.109Z,7.90
2024-02-20T06:20:41.380Z,7.89
2024-02-20T06:21:41.016Z,7.90
2024-02-20T06:22:41.075Z,7.90
2024-02-20T06:23:41.110Z,7.90
2024-02-20T06:24:40.982Z,7.92
2024-02-20T06:25:41.086Z,7.90
2024-02-20T06:26:40.967Z,7.92
2024-02-20T06:27:40.964Z,7.92
2024-02-20T06:28:41.012Z,7.93
2024-02-20T06:29:40.907Z,7.93
2024-02-20T06:30:40.913Z,7.92
2024-02-20T06:31:40.993Z,7.92
2024-02-20T06:32:41.088Z,7.92
2024-02-20T06:33:40.897Z,7.92
2024-02-20T06:34:41.017Z,7.93
2024-02-20T06:35:40.861Z,7.92
2024-02-20T06:36:40.862Z,7.95
2024-02-20T06:37:40.916Z,7.93
2024-02-20T06:38:40.838Z,7.93
2024-02-20T06:39:40.788Z,7.93
2024-02-20T06:40:40.865Z,7.95
2024-02-20T06:41:40.767Z,7.93
2024-02-20T06:42:40.788Z,7.93
2024-02-20T06:43:40.880Z,7.95
2024-02-20T06:44:40.742Z,7.95
2024-02-20T06:45:40.724Z,7.95
2024-02-20T06:46:40.817Z,7.95
2024-02-20T06:47:40.712Z,7.98
2024-02-20T06:48:40.729Z,7.98
2024-02-20T06:49:40.847Z,7.97
2024-02-20T06:50:40.686Z,7.95
2024-02-20T06:51:40.660Z,7.93
2024-02-20T06:52:40.723Z,7.93
2024-02-20T06:53:40.631Z,7.93
2024-02-20T06:54:40.641Z,7.93
2024-02-20T06:55:40.731Z,7.95
2024-02-20T06:56:40.609Z,7.92
2024-02-20T06:57:40.604Z,7.95
2024-02-20T06:58:40.682Z,7.93
2024-02-20T06:59:40.566Z,7.95
2024-02-20T07:00:40.702Z,7.95
2024-02-20T07:01:40.661Z,7.97
2024-02-20T07:02:40.546Z,7.95
2024-02-20T07:03:40.527Z,7.95
2024-02-20T07:04:40.596Z,7.93
2024-02-20T07:05:40.742Z,7.93
2024-02-20T07:06:40.609Z,7.93
2024-02-20T07:07:40.539Z,7.95
2024-02-20T07:08:40.480Z,7.97
2024-02-20T07:09:40.453Z,7.97
2024-02-20T07:10:40.550Z,7.97
2024-02-20T07:11:40.619Z,7.95
2024-02-20T07:12:40.462Z,7.98
2024-02-20T07:13:40.501Z,8.00
2024-02-20T07:14:40.426Z,8.01
2024-02-20T07:15:40.415Z,8.28
2024-02-20T07:16:40.529Z,8.33
2024-02-20T07:17:40.395Z,8.33
2024-02-20T07:18:40.401Z,8.26
2024-02-20T07:19:40.474Z,8.22
2024-02-20T07:20:40.349Z,8.19
2024-02-20T07:21:40.329Z,8.18
2024-02-20T07:22:40.466Z,8.15
2024-02-20T07:23:40.308Z,8.16
2024-02-20T07:24:40.336Z,8.16
2024-02-20T07:25:40.360Z,8.18
2024-02-20T07:26:40.293Z,8.16
2024-02-20T07:27:40.276Z,8.18
2024-02-20T07:28:40.381Z,8.18
2024-02-20T07:29:40.240Z,8.20
2024-02-20T07:30:40.227Z,8.20
2024-02-20T07:31:40.293Z,8.22
2024-02-20T07:32:40.292Z,8.25
2024-02-20T07:33:42.133Z,8.25
2024-02-20T07:34:40.355Z,8.26
2024-02-20T07:35:40.318Z,8.26
2024-02-20T07:36:40.202Z,8.29
2024-02-20T07:37:40.273Z,8.28
2024-02-20T07:38:40.146Z,8.30
2024-02-20T07:39:40.137Z,8.30
2024-02-20T07:40:40.215Z,8.30
2024-02-20T07:41:40.117Z,8.30
2024-02-20T07:42:40.131Z,8.36
2024-02-20T07:43:40.153Z,8.33
2024-02-20T07:44:40.071Z,8.37
2024-02-20T07:45:40.080Z,8.38
2024-02-20T07:46:40.216Z,8.40
2024-02-20T07:47:40.209Z,8.38
2024-02-20T07:48:40.105Z,8.37
2024-02-20T07:49:40.207Z,8.40
2024-02-20T07:50:40.099Z,8.43
2024-02-20T07:51:40.001Z,8.43
2024-02-20T07:52:40.128Z,8.44
2024-02-20T07:53:39.990Z,8.48
2024-02-20T07:54:39.965Z,8.50
2024-02-20T07:55:40.045Z,8.53
2024-02-20T07:56:39.958Z,8.58
2024-02-20T07:57:39.957Z,8.58
2024-02-20T07:58:44.696Z,8.61
2024-02-20T07:59:39.921Z,8.63
2024-02-20T08:00:39.962Z,8.65
2024-02-20T08:01:40.006Z,8.66
2024-02-20T08:02:39.905Z,8.70
2024-02-20T08:03:39.875Z,8.68
2024-02-20T08:04:39.948Z,8.66
2024-02-20T08:05:40.002Z,8.68
2024-02-20T08:06:39.897Z,8.71
2024-02-20T08:07:41.474Z,8.73
2024-02-20T08:08:39.812Z,8.71
2024-02-20T08:09:39.815Z,8.70
2024-02-20T08:10:39.811Z,8.70
2024-02-20T08:11:40.011Z,8.70
2024-02-20T08:12:39.786Z,8.70
2024-02-20T08:13:39.863Z,8.71
2024-02-20T08:14:39.753Z,8.71
2024-02-20T08:15:39.744Z,8.68
2024-02-20T08:16:39.841Z,8.68
2024-02-20T08:17:39.772Z,8.70
2024-02-20T08:18:39.769Z,8.70
2024-02-20T08:19:39.840Z,8.71
2024-02-20T08:20:39.691Z,8.70
2024-02-20T08:21:39.696Z,8.71
2024-02-20T08:22:39.728Z,8.71
2024-02-20T08:23:39.648Z,8.73
2024-02-20T08:24:39.647Z,8.74
2024-02-20T08:25:39.681Z,8.76
2024-02-20T08:26:39.690Z,8.74
2024-02-20T08:27:39.616Z,8.77
2024-02-20T08:28:42.604Z,8.76
2024-02-20T08:29:39.579Z,8.77
2024-02-20T08:30:39.568Z,8.77
2024-02-20T08:31:39.642Z,8.76
2024-02-20T08:32:39.582Z,8.77
2024-02-20T08:33:39.617Z,8.77
2024-02-20T08:34:39.628Z,8.79
2024-02-20T08:35:39.561Z,8.80
2024-02-20T08:36:39.505Z,8.83
2024-02-20T08:37:39.590Z,8.84
2024-02-20T08:38:39.481Z,8.84
2024-02-20T08:39:39.476Z,8.83
2024-02-20T08:40:39.588Z,8.83
2024-02-20T08:41:39.491Z,8.84
2024-02-20T08:42:39.434Z,8.83
2024-02-20T08:43:39.486Z,8.83
2024-02-20T08:44:39.417Z,8.81
2024-02-20T08:45:39.436Z,8.80
2024-02-20T08:46:39.438Z,8.79
2024-02-20T08:47:39.440Z,8.76
2024-02-20T08:48:39.438Z,8.76
2024-02-20T08:49:39.439Z,8.77
2024-02-20T08:50:39.362Z,8.73
2024-02-20T08:51:39.357Z,8.71
2024-02-20T08:52:39.354Z,8.70
2024-02-20T08:53:39.385Z,8.70
2024-02-20T08:54:39.329Z,8.70
2024-02-20T08:55:39.365Z,8.73
2024-02-20T08:56:39.278Z,8.73
2024-02-20T08:57:39.275Z,8.74
2024-02-20T08:58:39.338Z,8.73
2024-02-20T08:59:39.250Z,8.70
2024-02-20T09:00:39.284Z,8.65
2024-02-20T09:01:39.401Z,8.65
2024-02-20T09:02:39.216Z,8.63
2024-02-20T09:03:39.222Z,8.61
2024-02-20T09:04:39.283Z,8.58
2024-02-20T09:05:39.447Z,8.58
2024-02-20T09:06:39.224Z,8.56
2024-02-20T09:07:39.194Z,8.59
2024-02-20T09:08:39.180Z,8.59
2024-02-20T09:09:39.131Z,8.58
2024-02-20T09:10:39.172Z,8.56
2024-02-20T09:11:39.402Z,8.56
2024-02-20T09:12:39.135Z,8.53
2024-02-20T09:13:39.171Z,8.53
2024-02-20T09:14:39.084Z,8.52
2024-02-20T09:15:39.096Z,8.52
2024-02-20T09:16:39.179Z,8.48
2024-02-20T09:17:39.102Z,8.48
2024-02-20T09:18:39.326Z,8.47
2024-02-20T09:19:39.107Z,8.47
2024-02-20T09:20:39.083Z,8.50
2024-02-20T09:21:39.011Z,8.50
2024-02-20T09:22:39.101Z,8.53
2024-02-20T09:23:39.452Z,8.52
2024-02-20T09:24:38.974Z,8.56
2024-02-20T09:25:39.026Z,8.55
2024-02-20T09:26:38.951Z,8.55
2024-02-20T09:27:38.953Z,8.55
2024-02-20T09:28:38.989Z,8.56
2024-02-20T09:29:38.970Z,8.62
2024-02-20T09:30:38.904Z,8.66
2024-02-20T09:31:39.000Z,8.70
2024-02-20T09:32:38.982Z,8.74
2024-02-20T09:33:38.944Z,8.77
2024-02-20T09:34:38.971Z,8.81
2024-02-20T09:35:38.862Z,8.81
2024-02-20T09:36:38.830Z,8.81
2024-02-20T09:37:38.893Z,8.81
2024-02-20T09:38:38.825Z,8.80
2024-02-20T09:39:38.809Z,8.80
2024-02-20T09:40:38.889Z,8.80
2024-02-20T09:41:38.784Z,8.77
2024-02-20T09:42:40.515Z,8.77
2024-02-20T09:43:38.829Z,8.77
2024-02-20T09:44:38.786Z,8.80
2024-02-20T09:45:38.779Z,8.83
2024-02-20T09:46:38.792Z,8.80
2024-02-20T09:47:38.750Z,8.83
2024-02-20T09:48:38.774Z,8.76
2024-02-20T09:49:38.789Z,8.80
2024-02-20T09:50:38.981Z,8.80
2024-02-20T09:51:38.696Z,8.84
2024-02-20T09:52:38.744Z,8.92
2024-02-20T09:53:38.666Z,8.95
2024-02-20T09:54:38.640Z,8.92
2024-02-20T09:55:38.695Z,8.92
2024-02-20T09:56:38.637Z,8.91
2024-02-20T09:57:38.617Z,8.92
2024-02-20T09:58:38.625Z,8.98
2024-02-20T09:59:38.579Z,9.02
2024-02-20T10:00:38.603Z,9.01
2024-02-20T10:01:38.656Z,9.02
2024-02-20T10:02:38.557Z,9.02
2024-02-20T10:03:38.557Z,9.04
2024-02-20T10:04:38.601Z,9.01
2024-02-20T10:05:38.733Z,9.01
2024-02-20T10:06:38.565Z,9.04
2024-02-20T10:07:38.561Z,9.01
2024-02-20T10:08:38.488Z,8.95
2024-02-20T10:09:38.470Z,8.96
2024-02-20T10:10:38.476Z,8.96
2024-02-20T10:11:38.541Z,9.01
2024-02-20T10:12:38.508Z,9.01
2024-02-20T10:13:38.481Z,9.02
2024-02-20T10:14:38.429Z,9.05
2024-02-20T10:15:38.407Z,9.08
2024-02-20T10:16:38.415Z,9.04
2024-02-20T10:17:38.416Z,9.01
2024-02-20T10:18:38.390Z,8.99
2024-02-20T10:19:38.481Z,9.01
2024-02-20T10:20:38.702Z,8.99
2024-02-20T10:21:38.352Z,8.94
2024-02-20T10:22:38.354Z,8.94
2024-02-20T10:23:38.332Z,8.95
2024-02-20T10:24:39.131Z,8.96
2024-02-20T10:25:38.435Z,8.98
2024-02-20T10:26:38.312Z,9.04
2024-02-20T10:27:38.282Z,9.11
2024-02-20T10:28:38.288Z,9.14
2024-02-20T10:29:38.268Z,9.17
2024-02-20T10:30:38.256Z,9.20
2024-02-20T10:31:38.284Z,9.21
2024-02-20T10:32:38.316Z,9.24
2024-02-20T10:33:38.246Z,9.26
2024-02-20T10:34:38.229Z,9.31
2024-02-20T10:35:38.212Z,9.32
2024-02-20T10:36:38.183Z,9.35
2024-02-20T10:37:38.223Z,9.38
2024-02-20T10:38:41.484Z,9.43
2024-02-20T10:39:38.144Z,9.40
2024-02-20T10:40:38.173Z,9.36
2024-02-20T10:41:38.139Z,9.38
2024-02-20T10:42:38.134Z,9.38
2024-02-20T10:43:38.140Z,9.39
2024-02-20T10:44:38.101Z,9.40
2024-02-20T10:45:38.075Z,9.46
2024-02-20T10:46:38.138Z,9.46
2024-02-20T10:47:38.076Z,9.48
2024-02-20T10:48:38.090Z,9.50
2024-02-20T10:49:38.111Z,9.53
2024-02-20T10:50:38.025Z,9.48
2024-02-20T10:51:38.026Z,9.46
2024-02-20T10:52:38.110Z,9.48
2024-02-20T10:53:38.008Z,9.48
2024-02-20T10:54:43.529Z,9.47
2024-02-20T10:55:38.022Z,9.51
2024-02-20T10:56:37.947Z,9.51
2024-02-20T10:57:38.032Z,9.53
2024-02-20T10:58:37.980Z,9.54
2024-02-20T10:59:37.933Z,9.56
2024-02-20T11:00:39.630Z,9.56
2024-02-20T11:01:37.999Z,9.60
2024-02-20T11:02:37.898Z,9.66
2024-02-20T11:03:45.812Z,9.66
2024-02-20T11:04:38.004Z,9.65
2024-02-20T11:05:38.087Z,9.65
2024-02-20T11:06:39.587Z,9.66
2024-02-20T11:07:37.917Z,9.66
2024-02-20T11:08:37.885Z,9.61
2024-02-20T11:09:37.826Z,9.60
2024-02-20T11:10:38.255Z,9.60
2024-02-20T11:11:37.862Z,9.58
2024-02-20T11:12:37.825Z,9.60
2024-02-20T11:13:37.830Z,9.58
2024-02-20T11:14:37.765Z,9.56
2024-02-20T11:15:37.757Z,9.53
2024-02-20T11:16:39.412Z,9.56
2024-02-20T11:17:37.827Z,9.58
2024-02-20T11:18:37.781Z,9.58
2024-02-20T11:19:37.982Z,9.60
2024-02-20T11:20:37.687Z,9.58
2024-02-20T11:21:37.701Z,9.61
2024-02-20T11:22:37.764Z,9.65
2024-02-20T11:23:37.664Z,9.65
2024-02-20T11:24:37.664Z,9.65
2024-02-20T11:25:37.726Z,9.61
2024-02-20T11:26:37.621Z,9.61
2024-02-20T11:27:37.620Z,9.61
2024-02-20T11:28:37.793Z,9.61
2024-02-20T11:29:40.015Z,9.68
2024-02-20T11:30:37.580Z,9.72
2024-02-20T11:31:37.606Z,9.72
2024-02-20T11:32:37.610Z,9.69
2024-02-20T11:33:37.810Z,9.61
2024-02-20T11:34:37.616Z,9.60
2024-02-20T11:35:39.828Z,9.58
2024-02-20T11:36:37.503Z,9.53
2024-02-20T11:37:48.943Z,9.51
2024-02-20T11:38:37.742Z,9.51
2024-02-20T11:39:37.482Z,9.54
2024-02-20T11:40:37.520Z,9.56
2024-02-20T11:41:40.301Z,9.56
2024-02-20T11:42:37.445Z,9.56
2024-02-20T11:43:37.500Z,9.56
2024-02-20T11:44:37.435Z,9.58
2024-02-20T11:45:37.460Z,9.58
2024-02-20T11:46:37.443Z,9.61
2024-02-20T11:47:37.419Z,9.61
2024-02-20T11:48:37.441Z,9.61
2024-02-20T11:49:37.540Z,9.61
2024-02-20T11:50:37.354Z,9.61
2024-02-20T11:51:37.366Z,9.61
2024-02-20T11:52:37.435Z,9.65
2024-02-20T11:53:37.469Z,9.65
2024-02-20T11:54:37.312Z,9.60
2024-02-20T11:55:37.373Z,9.60
2024-02-20T11:56:37.398Z,9.58
2024-02-20T11:57:37.311Z,9.60
2024-02-20T11:58:37.305Z,9.58
2024-02-20T11:59:37.269Z,9.58
2024-02-20T12:00:37.278Z,9.64
2024-02-20T12:01:37.410Z,9.64
2024-02-20T12:02:37.241Z,9.60
2024-02-20T12:03:38.221Z,9.65
2024-02-20T12:04:37.274Z,9.64
2024-02-20T12:05:37.221Z,9.65
2024-02-20T12:06:37.581Z,9.60
2024-02-20T12:07:37.228Z,9.61
2024-02-20T12:08:37.163Z,9.60
2024-02-20T12:09:37.150Z,9.61
2024-02-20T12:10:37.193Z,9.64
2024-02-20T12:11:37.156Z,9.60
2024-02-20T12:12:37.124Z,9.58
2024-02-20T12:13:37.170Z,9.56
2024-02-20T12:14:37.113Z,9.54
2024-02-20T12:15:37.103Z,9.56
2024-02-20T12:16:37.107Z,9.53
2024-02-20T12:17:37.066Z,9.56
2024-02-20T12:18:37.093Z,9.54
2024-02-20T12:19:37.206Z,9.56
2024-02-20T12:20:37.053Z,9.57
2024-02-20T12:21:37.019Z,9.57
2024-02-20T12:22:37.071Z,9.56
2024-02-20T12:23:36.994Z,9.57
2024-02-20T12:24:36.987Z,9.58
2024-02-20T12:25:37.021Z,9.61
2024-02-20T12:26:36.981Z,9.60
2024-02-20T12:27:36.961Z,9.60
2024-02-20T12:28:36.986Z,9.65
2024-02-20T12:29:38.489Z,9.68
2024-02-20T12:30:36.955Z,9.68
2024-02-20T12:31:36.990Z,9.69
2024-02-20T12:32:36.932Z,9.69
2024-02-20T12:33:37.336Z,9.72
2024-02-20T12:34:42.205Z,9.74
2024-02-20T12:35:39.441Z,9.74
2024-02-20T12:36:36.844Z,9.75
2024-02-20T12:37:36.864Z,9.78
2024-02-20T12:38:36.832Z,9.76
2024-02-20T12:39:36.818Z,9.76
2024-02-20T12:40:36.863Z,9.78
2024-02-20T12:41:40.072Z,9.78
2024-02-20T12:42:36.792Z,9.83
2024-02-20T12:43:36.804Z,9.81
2024-02-20T12:44:36.763Z,9.83
2024-02-20T12:45:36.762Z,9.86
2024-02-20T12:46:36.769Z,9.86
2024-02-20T12:47:39.054Z,9.89
2024-02-20T12:48:36.847Z,9.93
2024-02-20T12:49:36.831Z,10.02
2024-02-20T12:50:36.731Z,10.07
2024-02-20T12:51:36.678Z,10.11
2024-02-20T12:52:36.731Z,10.12
2024-02-20T12:53:38.766Z,10.11
2024-02-20T12:54:36.647Z,10.12
2024-02-20T12:55:36.787Z,10.14
2024-02-20T12:56:36.632Z,10.15
2024-02-20T12:57:36.611Z,10.17
2024-02-20T12:58:36.670Z,10.15
2024-02-20T12:59:36.589Z,10.08
2024-02-20T13:00:36.592Z,10.08
2024-02-20T13:01:36.702Z,10.08
2024-02-20T13:02:36.566Z,10.05
2024-02-20T13:03:36.548Z,10.07
2024-02-20T13:04:36.628Z,10.05
2024-02-20T13:05:36.656Z,10.04
2024-02-20T13:06:36.603Z,10.05
2024-02-20T13:07:36.523Z,10.05
2024-02-20T13:08:36.495Z,10.07
2024-02-20T13:09:36.490Z,10.05
2024-02-20T13:10:36.577Z,10.05
2024-02-20T13:11:39.317Z,10.05
2024-02-20T13:12:36.487Z,10.08
2024-02-20T13:13:36.524Z,10.07
2024-02-20T13:14:36.452Z,10.09
2024-02-20T13:15:36.421Z,10.11
2024-02-20T13:16:36.447Z,10.09
2024-02-20T13:17:38.653Z,10.11